Time;durP1;ratioP1;P1;durP2;ratioP2;P2;SDS_P1;SDS_P2;PMS_P1;PMS_P2;Temp;Humidity;BMP_temperature;BMP_pressure;BME280_temperature;BME280_humidity;BME280_pressure;Samples;Min_cycle;Max_cycle;Signal;HPM_P1;HPM_P2
2023/12/05 00:01:10;;;;;;;24.43;13.50;;;;;;;;;;5112085;28;20462;-81
2023/12/05 00:03:38;;;;;;;22.63;14.83;;;;;;;;;;5113823;28;20490;-80
2023/12/05 00:06:09;;;;;;;20.57;13.80;;;;;;;;;;5111167;28;20521;-80
2023/12/05 00:08:41;;;;;;;22.93;14.43;;;;;;;;;;5111664;28;20466;-80
2023/12/05 00:11:08;;;;;;;25.77;15.37;;;;;;;;;;5113556;27;20450;-81
2023/12/05 00:13:37;;;;;;;21.20;14.10;;;;;;;;;;5116942;28;20514;-80
2023/12/05 00:16:04;;;;;;;24.93;14.40;;;;;;;;;;5114550;28;20457;-81
2023/12/05 00:18:31;;;;;;;19.70;14.27;;;;;;;;;;5114348;28;20537;-80
2023/12/05 05:19:47;;;;;;;22.47;14.60;;;;;;;;;;5608843;22;20504;-86
2023/12/05 05:22:14;;;;;;;24.10;14.53;;;;;;;;;;5034746;28;21199;-86
2023/12/05 05:24:40;;;;;;;20.73;14.27;;;;;;;;;;5029030;28;20527;-86
2023/12/05 05:27:07;;;;;;;24.43;15.67;;;;;;;;;;5035171;28;20486;-87
2023/12/05 05:29:33;;;;;;;21.57;15.10;;;;;;;;;;5039427;28;20585;-85
2023/12/05 05:32:00;;;;;;;19.90;14.27;;;;;;;;;;5038926;28;20537;-84
2023/12/05 05:34:26;;;;;;;22.57;15.80;;;;;;;;;;5039941;28;20696;-84
2023/12/05 05:36:54;;;;;;;29.60;15.77;;;;;;;;;;5038234;28;20496;-83
2023/12/05 05:39:21;;;;;;;23.80;15.30;;;;;;;;;;5035667;28;20517;-83
2023/12/05 05:41:47;;;;;;;23.37;14.90;;;;;;;;;;5038517;28;20448;-82
2023/12/05 05:44:14;;;;;;;21.33;14.77;;;;;;;;;;5032682;28;20577;-83
2023/12/05 05:46:40;;;;;;;21.23;15.33;;;;;;;;;;5038098;28;20517;-83
2023/12/05 05:49:07;;;;;;;23.00;14.40;;;;;;;;;;5035861;28;20464;-82
2023/12/05 05:51:34;;;;;;;23.27;14.00;;;;;;;;;;5036179;28;20472;-83
2023/12/05 05:54:01;;;;;;;24.40;14.90;;;;;;;;;;5033873;28;20485;-82
2023/12/05 05:56:28;;;;;;;19.13;14.00;;;;;;;;;;5039493;28;20449;-82
2023/12/05 05:58:54;;;;;;;19.30;13.57;;;;;;;;;;5036358;28;20457;-82
2023/12/05 06:01:21;;;;;;;20.97;14.70;;;;;;;;;;5034600;28;20540;-82
2023/12/05 06:03:47;;;;;;;22.30;14.27;;;;;;;;;;5036327;28;20457;-81
2023/12/05 06:06:14;;;;;;;20.23;14.47;;;;;;;;;;5035937;28;20485;-82
2023/12/05 06:08:40;;;;;;;22.50;14.43;;;;;;;;;;5036181;28;20477;-82
2023/12/05 06:11:08;;;;;;;23.90;14.90;;;;;;;;;;5033128;28;20490;-81
2023/12/05 06:13:35;;;;;;;19.63;13.60;;;;;;;;;;5033491;28;20465;-85
2023/12/05 06:16:01;;;;;;;18.53;13.97;;;;;;;;;;5038558;28;20540;-83
2023/12/05 06:18:27;;;;;;;20.37;14.80;;;;;;;;;;5034633;28;20477;-83
2023/12/05 06:20:56;;;;;;;20.70;14.47;;;;;;;;;;5038136;28;20532;-82
2023/12/05 06:23:22;;;;;;;19.93;15.07;;;;;;;;;;5035463;28;20466;-82
2023/12/05 06:25:49;;;;;;;19.07;13.23;;;;;;;;;;5038247;28;21026;-82
2023/12/05 06:28:16;;;;;;;20.57;14.70;;;;;;;;;;5037893;28;20481;-81
2023/12/05 06:30:43;;;;;;;23.63;14.63;;;;;;;;;;5036804;28;20529;-80
2023/12/05 06:33:09;;;;;;;20.50;14.40;;;;;;;;;;5035595;28;20466;-82
2023/12/05 06:35:36;;;;;;;22.30;15.03;;;;;;;;;;5035948;28;20482;-84
2023/12/05 06:38:02;;;;;;;20.30;13.83;;;;;;;;;;5041862;28;20450;-82
2023/12/05 06:40:28;;;;;;;22.50;14.80;;;;;;;;;;5036657;28;20547;-81
2023/12/05 06:42:55;;;;;;;19.63;14.93;;;;;;;;;;5040733;28;20533;-82
2023/12/05 06:45:23;;;;;;;23.23;15.80;;;;;;;;;;5037817;28;20606;-82
2023/12/05 06:47:49;;;;;;;26.00;16.40;;;;;;;;;;5034066;28;20537;-82
2023/12/05 06:50:16;;;;;;;20.73;14.70;;;;;;;;;;5036684;28;20489;-82
2023/12/05 06:52:42;;;;;;;21.73;14.50;;;;;;;;;;5038393;28;20474;-82
2023/12/05 06:55:09;;;;;;;23.27;15.33;;;;;;;;;;5037958;28;20460;-83
2023/12/05 06:57:35;;;;;;;23.97;15.80;;;;;;;;;;5036145;28;20516;-81
2023/12/05 07:00:03;;;;;;;26.70;16.20;;;;;;;;;;5038972;28;20525;-80
2023/12/05 07:02:32;;;;;;;22.60;16.40;;;;;;;;;;5038491;28;20452;-82
2023/12/05 07:04:58;;;;;;;24.73;16.23;;;;;;;;;;5026364;28;20497;-82
2023/12/05 07:07:25;;;;;;;24.77;17.20;;;;;;;;;;5037480;28;20513;-81
2023/12/05 07:09:52;;;;;;;20.93;14.73;;;;;;;;;;5029749;28;20445;-81
2023/12/05 07:12:19;;;;;;;21.57;14.07;;;;;;;;;;5042076;28;20442;-82
2023/12/05 07:14:45;;;;;;;22.77;15.10;;;;;;;;;;5040121;28;20531;-82
2023/12/05 07:17:11;;;;;;;24.20;17.13;;;;;;;;;;5041747;28;20454;-80
2023/12/05 07:19:39;;;;;;;23.50;14.67;;;;;;;;;;5040196;28;20493;-79
2023/12/05 07:22:05;;;;;;;24.00;15.90;;;;;;;;;;5042330;28;20437;-82
2023/12/05 07:24:32;;;;;;;24.77;16.27;;;;;;;;;;5039970;28;20458;-80
2023/12/05 07:26:58;;;;;;;24.53;15.67;;;;;;;;;;5037288;28;21034;-79
2023/12/05 07:29:25;;;;;;;27.60;16.87;;;;;;;;;;5037758;28;20482;-80
2023/12/05 07:31:51;;;;;;;27.87;17.27;;;;;;;;;;5039381;28;20480;-81
2023/12/05 07:34:18;;;;;;;23.10;15.97;;;;;;;;;;5043845;28;20632;-81
2023/12/05 07:36:46;;;;;;;23.27;16.80;;;;;;;;;;5041596;28;20462;-79
2023/12/05 07:39:13;;;;;;;27.13;17.50;;;;;;;;;;5043934;28;20445;-81
2023/12/05 07:41:40;;;;;;;30.60;16.60;;;;;;;;;;5038889;28;20500;-80
2023/12/05 07:44:06;;;;;;;26.23;16.40;;;;;;;;;;5034339;28;20471;-80
2023/12/05 07:46:33;;;;;;;26.60;16.67;;;;;;;;;;5041081;28;20497;-81
2023/12/05 07:48:59;;;;;;;25.83;16.07;;;;;;;;;;5040536;28;20461;-81
2023/12/05 07:51:26;;;;;;;26.70;16.60;;;;;;;;;;5040616;28;20531;-80
2023/12/05 07:53:53;;;;;;;29.03;17.57;;;;;;;;;;5042347;28;20450;-79
2023/12/05 07:56:20;;;;;;;26.70;16.37;;;;;;;;;;5039374;28;20505;-79
2023/12/05 07:58:46;;;;;;;27.10;15.40;;;;;;;;;;5041889;28;20465;-81
2023/12/05 08:01:13;;;;;;;29.10;17.53;;;;;;;;;;5041172;28;20485;-79
2023/12/05 08:03:39;;;;;;;28.60;18.80;;;;;;;;;;5030569;28;20493;-79
2023/12/05 08:06:06;;;;;;;26.60;17.47;;;;;;;;;;5038805;28;20496;-79
2023/12/05 08:08:34;;;;;;;28.90;17.80;;;;;;;;;;5042492;28;20458;-80
2023/12/05 08:11:02;;;;;;;28.33;17.37;;;;;;;;;;5032649;28;20501;-79
2023/12/05 08:13:28;;;;;;;27.07;17.00;;;;;;;;;;5029179;28;20496;-81
2023/12/05 08:15:55;;;;;;;27.53;17.87;;;;;;;;;;5041814;28;20505;-80
2023/12/05 08:18:22;;;;;;;28.87;17.13;;;;;;;;;;5035863;28;21430;-83
2023/12/05 08:20:48;;;;;;;23.97;17.30;;;;;;;;;;5035361;28;20569;-83
2023/12/05 08:23:14;;;;;;;25.90;15.60;;;;;;;;;;5033582;28;20481;-81
2023/12/05 08:25:41;;;;;;;29.97;16.80;;;;;;;;;;5038688;28;20482;-81
2023/12/05 08:28:09;;;;;;;35.23;21.17;;;;;;;;;;5038335;28;20513;-78
2023/12/05 08:30:35;;;;;;;30.50;19.50;;;;;;;;;;5032625;28;20548;-83
2023/12/05 08:33:02;;;;;;;28.47;17.57;;;;;;;;;;5041612;28;20453;-82
2023/12/05 08:35:28;;;;;;;30.40;17.70;;;;;;;;;;5036288;28;20457;-82
2023/12/05 08:37:55;;;;;;;36.00;19.77;;;;;;;;;;5042333;28;20454;-81
2023/12/05 08:40:21;;;;;;;30.80;18.33;;;;;;;;;;5040829;28;20494;-81
2023/12/05 08:42:47;;;;;;;28.50;17.40;;;;;;;;;;5042750;28;20454;-79
2023/12/05 08:45:15;;;;;;;34.23;18.53;;;;;;;;;;5041468;28;20889;-83
2023/12/05 08:47:42;;;;;;;35.10;19.70;;;;;;;;;;5041270;28;20457;-82
2023/12/05 08:50:11;;;;;;;33.03;20.73;;;;;;;;;;5039089;28;20481;-83
2023/12/05 08:52:38;;;;;;;33.07;17.90;;;;;;;;;;5039879;28;20500;-80
2023/12/05 08:55:04;;;;;;;33.00;20.10;;;;;;;;;;5032540;28;20462;-79
2023/12/05 08:57:31;;;;;;;32.53;18.80;;;;;;;;;;5031150;28;20947;-79
2023/12/05 08:59:57;;;;;;;31.50;19.23;;;;;;;;;;5031735;28;20462;-81
2023/12/05 09:02:25;;;;;;;31.23;19.63;;;;;;;;;;5033900;28;20481;-80
2023/12/05 09:04:51;;;;;;;32.97;19.93;;;;;;;;;;5038349;28;20473;-81
2023/12/05 09:07:18;;;;;;;32.17;18.50;;;;;;;;;;5037870;28;20533;-81
2023/12/05 09:09:44;;;;;;;34.20;20.03;;;;;;;;;;5041705;28;20458;-80
2023/12/05 09:12:10;;;;;;;34.60;18.90;;;;;;;;;;5041658;28;20456;-80
2023/12/05 09:14:37;;;;;;;35.73;19.60;;;;;;;;;;5035823;28;20544;-81
2023/12/05 09:17:04;;;;;;;35.70;20.90;;;;;;;;;;5041913;28;20843;-81
2023/12/05 09:19:31;;;;;;;34.13;20.23;;;;;;;;;;5038289;28;21443;-80
2023/12/05 09:21:58;;;;;;;36.10;19.20;;;;;;;;;;5032825;28;20502;-82
2023/12/05 09:24:24;;;;;;;39.57;22.13;;;;;;;;;;5032738;28;20493;-82
2023/12/05 09:26:51;;;;;;;29.93;18.40;;;;;;;;;;5032521;28;20453;-80
2023/12/05 09:29:17;;;;;;;33.00;19.17;;;;;;;;;;5041441;28;20480;-79
2023/12/05 09:31:43;;;;;;;33.07;20.27;;;;;;;;;;5036845;28;20574;-80
2023/12/05 09:34:10;;;;;;;37.57;20.97;;;;;;;;;;5030015;28;21354;-83
2023/12/05 09:36:38;;;;;;;32.13;20.63;;;;;;;;;;5035576;28;20467;-82
2023/12/05 09:39:05;;;;;;;32.10;19.77;;;;;;;;;;5038045;28;20473;-81
2023/12/05 09:41:31;;;;;;;41.00;23.30;;;;;;;;;;5041244;28;20553;-81
2023/12/05 09:44:01;;;;;;;39.60;19.90;;;;;;;;;;5040122;28;20516;-82
2023/12/05 09:46:28;;;;;;;36.10;19.73;;;;;;;;;;5040512;28;20462;-80
2023/12/05 09:48:58;;;;;;;33.03;19.40;;;;;;;;;;5032473;28;20479;-80
2023/12/05 09:51:25;;;;;;;36.07;19.57;;;;;;;;;;5038427;28;20882;-80
2023/12/05 09:53:56;;;;;;;36.17;21.70;;;;;;;;;;5039925;28;21102;-81
2023/12/05 09:56:22;;;;;;;33.47;20.80;;;;;;;;;;5039342;28;20453;-82
2023/12/05 09:58:49;;;;;;;36.10;21.30;;;;;;;;;;5036105;28;20494;-82
2023/12/05 10:01:16;;;;;;;36.53;22.37;;;;;;;;;;5040481;28;20505;-81
2023/12/05 10:03:44;;;;;;;40.77;23.50;;;;;;;;;;5037747;28;20496;-80
2023/12/05 10:06:11;;;;;;;39.30;23.50;;;;;;;;;;5034388;28;20466;-79
2023/12/05 10:08:38;;;;;;;44.40;22.47;;;;;;;;;;5036583;28;20966;-83
2023/12/05 10:11:07;;;;;;;40.33;22.70;;;;;;;;;;5031381;28;20437;-82
2023/12/05 10:13:34;;;;;;;38.00;23.00;;;;;;;;;;5030239;28;20463;-82
2023/12/05 10:16:01;;;;;;;40.37;22.17;;;;;;;;;;5039667;28;20533;-81
2023/12/05 10:18:28;;;;;;;36.97;20.23;;;;;;;;;;5035531;28;20831;-80
2023/12/05 10:20:54;;;;;;;39.07;21.50;;;;;;;;;;5037956;28;20537;-80
2023/12/05 10:23:21;;;;;;;42.00;21.10;;;;;;;;;;5039499;28;20465;-81
2023/12/05 10:25:47;;;;;;;40.37;22.30;;;;;;;;;;5032418;28;20466;-80
2023/12/05 10:28:15;;;;;;;36.53;20.40;;;;;;;;;;5038298;28;20626;-81
2023/12/05 10:30:41;;;;;;;38.33;21.77;;;;;;;;;;5036296;28;20489;-79
2023/12/05 10:33:11;;;;;;;42.97;23.00;;;;;;;;;;5033289;28;20472;-81
2023/12/05 10:35:38;;;;;;;45.23;25.10;;;;;;;;;;5038746;28;20509;-81
2023/12/05 10:38:05;;;;;;;40.37;22.40;;;;;;;;;;5034406;28;20460;-80
2023/12/05 10:40:31;;;;;;;40.53;22.43;;;;;;;;;;5040324;28;20464;-81
2023/12/05 10:42:57;;;;;;;39.33;21.40;;;;;;;;;;5040843;28;20497;-79
2023/12/05 10:45:25;;;;;;;42.87;24.53;;;;;;;;;;5032643;28;20481;-81
2023/12/05 10:47:52;;;;;;;42.07;20.67;;;;;;;;;;5031789;28;20454;-81
2023/12/05 10:50:19;;;;;;;42.97;22.97;;;;;;;;;;5029504;28;20504;-81
2023/12/05 10:52:45;;;;;;;39.20;20.20;;;;;;;;;;5034510;28;20481;-81
2023/12/05 10:55:11;;;;;;;41.70;22.37;;;;;;;;;;5039801;28;20481;-82
2023/12/05 10:57:38;;;;;;;40.63;22.40;;;;;;;;;;5036824;28;20446;-82
2023/12/05 11:00:07;;;;;;;41.33;22.43;;;;;;;;;;5038031;28;20482;-81
2023/12/05 11:02:36;;;;;;;39.47;22.03;;;;;;;;;;5036945;28;20494;-82
2023/12/05 11:05:04;;;;;;;48.43;23.97;;;;;;;;;;5043341;28;20465;-81
2023/12/05 11:07:30;;;;;;;42.10;22.53;;;;;;;;;;5045275;28;20442;-84
2023/12/05 11:09:56;;;;;;;36.37;20.03;;;;;;;;;;5041143;28;21421;-83
2023/12/05 11:12:23;;;;;;;41.43;22.00;;;;;;;;;;5041101;28;20522;-84
2023/12/05 11:14:51;;;;;;;42.00;23.30;;;;;;;;;;5044577;28;21104;-83
2023/12/05 11:17:20;;;;;;;41.57;22.70;;;;;;;;;;5040940;28;20478;-84
2023/12/05 11:19:58;;;;;;;41.33;22.23;;;;;;;;;;5044669;28;20481;-84
2023/12/05 11:22:31;;;;;;;37.43;21.57;;;;;;;;;;5040057;28;20469;-84
2023/12/05 11:25:04;;;;;;;36.23;22.43;;;;;;;;;;5045679;28;20493;-84
2023/12/05 11:27:36;;;;;;;38.87;22.30;;;;;;;;;;5042197;28;20537;-84
2023/12/05 11:30:19;;;;;;;41.47;23.17;;;;;;;;;;5041881;28;20462;-83
2023/12/05 11:32:49;;;;;;;39.70;21.67;;;;;;;;;;5041943;28;21009;-84
2023/12/05 11:35:19;;;;;;;40.63;22.63;;;;;;;;;;5048650;28;20461;-84
2023/12/05 11:37:51;;;;;;;34.93;21.00;;;;;;;;;;5041763;28;20477;-84
2023/12/05 11:40:17;;;;;;;36.17;21.63;;;;;;;;;;5040327;28;20539;-82
2023/12/05 11:43:01;;;;;;;38.57;23.10;;;;;;;;;;5039553;28;20508;-82
2023/12/05 11:45:28;;;;;;;38.20;22.50;;;;;;;;;;5033330;28;20513;-88
2023/12/05 11:47:54;;;;;;;38.77;22.20;;;;;;;;;;5042741;28;20476;-85
2023/12/05 11:50:22;;;;;;;33.10;20.57;;;;;;;;;;5039142;28;20473;-85
2023/12/05 11:52:50;;;;;;;42.13;21.97;;;;;;;;;;5043906;28;20474;-83
2023/12/05 11:55:16;;;;;;;39.27;23.17;;;;;;;;;;5041839;28;20473;-79
2023/12/05 11:57:43;;;;;;;34.83;21.43;;;;;;;;;;5042490;28;20461;-81
2023/12/05 12:00:10;;;;;;;34.73;21.10;;;;;;;;;;5035455;28;20529;-83
2023/12/05 12:02:42;;;;;;;38.30;20.80;;;;;;;;;;5043230;28;20477;-81
2023/12/05 12:05:10;;;;;;;39.67;22.33;;;;;;;;;;5049368;28;20965;-80
2023/12/05 12:07:44;;;;;;;35.87;20.20;;;;;;;;;;5036247;28;20459;-80
2023/12/05 12:10:10;;;;;;;31.60;20.10;;;;;;;;;;5043857;28;20472;-83
2023/12/05 12:12:36;;;;;;;36.20;22.80;;;;;;;;;;5040774;28;20909;-81
2023/12/05 12:15:03;;;;;;;32.70;20.10;;;;;;;;;;5042686;28;20481;-81
2023/12/05 12:17:30;;;;;;;27.23;19.00;;;;;;;;;;5046054;28;20454;-80
2023/12/05 12:19:56;;;;;;;29.77;18.93;;;;;;;;;;5038037;28;20490;-82
2023/12/05 12:22:23;;;;;;;26.00;16.17;;;;;;;;;;5042300;28;20982;-82
2023/12/05 12:24:51;;;;;;;25.43;15.30;;;;;;;;;;5046231;28;20462;-84
2023/12/05 12:27:17;;;;;;;21.90;14.37;;;;;;;;;;5043970;28;20457;-84
2023/12/05 12:29:52;;;;;;;22.07;15.37;;;;;;;;;;5040112;28;20453;-84
2023/12/05 12:32:18;;;;;;;20.43;14.03;;;;;;;;;;5035759;28;20485;-82
2023/12/05 12:34:45;;;;;;;21.97;14.37;;;;;;;;;;5040274;28;20466;-81
2023/12/05 12:37:12;;;;;;;21.00;15.60;;;;;;;;;;5042200;28;20515;-83
2023/12/05 12:39:39;;;;;;;23.97;15.57;;;;;;;;;;5043409;28;20454;-83
2023/12/05 12:42:08;;;;;;;25.47;18.10;;;;;;;;;;5037167;28;20482;-83
2023/12/05 12:44:34;;;;;;;27.67;18.20;;;;;;;;;;5042044;28;20488;-85
2023/12/05 12:47:01;;;;;;;28.67;17.67;;;;;;;;;;5042386;28;20453;-85
2023/12/05 12:49:27;;;;;;;24.73;16.43;;;;;;;;;;5039465;28;20490;-84
2023/12/05 12:51:54;;;;;;;28.03;17.80;;;;;;;;;;5038759;28;20470;-84
2023/12/05 12:54:20;;;;;;;22.00;15.70;;;;;;;;;;5035277;28;20909;-83
2023/12/05 12:56:47;;;;;;;20.77;14.87;;;;;;;;;;5038961;28;20474;-84
2023/12/05 12:59:14;;;;;;;21.53;15.90;;;;;;;;;;5039608;28;20449;-85
2023/12/05 13:01:41;;;;;;;20.50;14.83;;;;;;;;;;5038761;28;20513;-84
2023/12/05 13:04:10;;;;;;;19.30;14.03;;;;;;;;;;5037626;28;20458;-82
2023/12/05 13:06:38;;;;;;;18.10;14.03;;;;;;;;;;5037611;28;20469;-86
2023/12/05 13:09:15;;;;;;;18.80;13.50;;;;;;;;;;5037473;28;20482;-86
2023/12/05 13:11:43;;;;;;;15.90;12.40;;;;;;;;;;5038933;28;20488;-82
2023/12/05 13:14:10;;;;;;;14.10;10.53;;;;;;;;;;5031878;28;20448;-83
2023/12/05 13:16:41;;;;;;;13.90;10.90;;;;;;;;;;5032356;28;20478;-85
2023/12/05 13:19:19;;;;;;;13.37;9.47;;;;;;;;;;5037467;28;20457;-83
2023/12/05 13:21:45;;;;;;;13.03;10.57;;;;;;;;;;5039041;28;20493;-82
2023/12/05 13:24:11;;;;;;;13.40;9.80;;;;;;;;;;5044041;28;20792;-83
2023/12/05 13:26:38;;;;;;;16.40;12.13;;;;;;;;;;5040561;28;20490;-82
2023/12/05 13:29:04;;;;;;;13.00;10.50;;;;;;;;;;5041654;28;20518;-82
2023/12/05 13:31:32;;;;;;;11.70;9.37;;;;;;;;;;5040758;28;20457;-83
2023/12/05 13:34:00;;;;;;;11.37;8.60;;;;;;;;;;5040616;28;20486;-82
2023/12/05 13:36:26;;;;;;;12.63;10.03;;;;;;;;;;5034551;28;20458;-84
2023/12/05 13:38:55;;;;;;;10.90;8.43;;;;;;;;;;5036410;28;20511;-83
2023/12/05 13:41:21;;;;;;;13.03;9.03;;;;;;;;;;5038660;28;20484;-87
2023/12/05 13:43:48;;;;;;;13.77;8.27;;;;;;;;;;5035680;28;20474;-86
2023/12/05 13:46:14;;;;;;;11.53;9.00;;;;;;;;;;5041202;28;20482;-83
2023/12/05 13:48:41;;;;;;;9.80;7.83;;;;;;;;;;5039068;28;20461;-83
2023/12/05 13:51:09;;;;;;;11.10;8.33;;;;;;;;;;5032541;28;20453;-83
2023/12/05 13:53:35;;;;;;;11.00;8.40;;;;;;;;;;5041167;28;20450;-85
2023/12/05 13:56:02;;;;;;;9.80;8.17;;;;;;;;;;5037903;28;20490;-83
2023/12/05 13:58:29;;;;;;;9.80;7.53;;;;;;;;;;5036687;28;20453;-85
2023/12/05 14:00:55;;;;;;;11.03;5.77;;;;;;;;;;5034233;28;20492;-82
2023/12/05 14:03:22;;;;;;;8.83;6.53;;;;;;;;;;5034920;28;20490;-86
2023/12/05 14:05:49;;;;;;;9.73;7.83;;;;;;;;;;5039041;28;20587;-86
2023/12/05 14:08:16;;;;;;;9.33;7.30;;;;;;;;;;5041063;28;20524;-85
2023/12/05 14:10:43;;;;;;;9.90;7.50;;;;;;;;;;5042425;28;20464;-87
2023/12/05 14:13:09;;;;;;;9.30;6.40;;;;;;;;;;5029007;28;20442;-88
2023/12/05 14:15:36;;;;;;;10.23;7.57;;;;;;;;;;5030220;28;20450;-87
2023/12/05 14:18:02;;;;;;;9.40;7.10;;;;;;;;;;5039281;28;20441;-86
2023/12/05 14:20:29;;;;;;;7.97;7.00;;;;;;;;;;5037519;28;20499;-86
2023/12/05 14:22:55;;;;;;;8.73;7.40;;;;;;;;;;5038252;28;21028;-85
2023/12/05 14:25:23;;;;;;;8.90;6.70;;;;;;;;;;5038849;28;20453;-84
2023/12/05 14:27:49;;;;;;;14.23;10.00;;;;;;;;;;5039579;28;20504;-85
2023/12/05 14:30:16;;;;;;;8.47;6.53;;;;;;;;;;5037837;28;20504;-87
2023/12/05 14:32:42;;;;;;;12.10;7.63;;;;;;;;;;5039394;28;20450;-86
2023/12/05 14:35:09;;;;;;;10.20;8.07;;;;;;;;;;5039574;28;20492;-84
2023/12/05 14:37:35;;;;;;;7.40;5.80;;;;;;;;;;5036924;28;20481;-85
2023/12/05 14:40:02;;;;;;;7.10;5.77;;;;;;;;;;5038176;28;20478;-84
2023/12/05 14:42:30;;;;;;;6.77;6.07;;;;;;;;;;5038648;28;20483;-84
2023/12/05 14:44:56;;;;;;;7.83;7.03;;;;;;;;;;5039305;28;21151;-84
2023/12/05 14:47:24;;;;;;;19.70;12.67;;;;;;;;;;5042169;28;20476;-87
2023/12/05 14:49:50;;;;;;;7.20;5.80;;;;;;;;;;5038896;28;20455;-84
2023/12/05 14:52:17;;;;;;;8.23;6.60;;;;;;;;;;5041596;28;20477;-88
2023/12/05 14:54:43;;;;;;;8.67;6.17;;;;;;;;;;5038262;28;20489;-83
2023/12/05 14:57:09;;;;;;;6.80;6.10;;;;;;;;;;5037798;28;20882;-86
2023/12/05 14:59:37;;;;;;;8.67;7.77;;;;;;;;;;5041351;28;20521;-85
2023/12/05 15:02:04;;;;;;;6.30;5.70;;;;;;;;;;5038804;28;20481;-87
2023/12/05 15:04:30;;;;;;;6.20;5.60;;;;;;;;;;5037642;28;20492;-86
2023/12/05 15:06:57;;;;;;;6.33;5.37;;;;;;;;;;5038773;28;20492;-86
2023/12/05 15:09:24;;;;;;;6.90;5.80;;;;;;;;;;5037420;28;20456;-87
2023/12/05 15:11:51;;;;;;;6.60;5.20;;;;;;;;;;5039818;28;20482;-84
2023/12/05 15:14:18;;;;;;;9.33;8.07;;;;;;;;;;5041233;28;20516;-86
2023/12/05 15:16:46;;;;;;;9.93;9.07;;;;;;;;;;5037330;28;20529;-88
2023/12/05 15:19:14;;;;;;;5.77;4.87;;;;;;;;;;5038552;28;20462;-88
2023/12/05 15:21:40;;;;;;;7.23;6.40;;;;;;;;;;5038078;28;20746;-84
2023/12/05 15:24:06;;;;;;;5.33;4.83;;;;;;;;;;5040295;28;20553;-84
2023/12/05 15:26:34;;;;;;;13.87;12.50;;;;;;;;;;5037460;28;20537;-86
2023/12/05 15:29:00;;;;;;;8.37;7.50;;;;;;;;;;5038912;28;20484;-85
2023/12/05 15:31:27;;;;;;;6.67;6.07;;;;;;;;;;5034291;28;20458;-86
2023/12/05 15:33:55;;;;;;;6.57;5.40;;;;;;;;;;5039642;28;20451;-84
2023/12/05 15:36:22;;;;;;;6.60;5.70;;;;;;;;;;5038749;28;20464;-85
2023/12/05 15:38:48;;;;;;;6.10;5.50;;;;;;;;;;5036778;28;21159;-84
2023/12/05 15:41:14;;;;;;;7.40;6.70;;;;;;;;;;5037301;28;20518;-84
2023/12/05 15:43:41;;;;;;;7.10;5.20;;;;;;;;;;5034427;28;20557;-85
2023/12/05 15:46:08;;;;;;;7.00;6.03;;;;;;;;;;5026378;28;20451;-84
2023/12/05 15:48:34;;;;;;;6.00;5.10;;;;;;;;;;5040629;28;20540;-84
2023/12/05 15:51:02;;;;;;;8.33;7.00;;;;;;;;;;5038245;28;20462;-84
2023/12/05 15:53:28;;;;;;;7.60;6.57;;;;;;;;;;5039682;28;20449;-85
2023/12/05 15:55:55;;;;;;;8.50;6.33;;;;;;;;;;5035988;28;20484;-85
2023/12/05 15:58:21;;;;;;;5.63;5.03;;;;;;;;;;5033335;28;20585;-86
2023/12/05 16:00:48;;;;;;;7.00;6.30;;;;;;;;;;5029851;28;20462;-84
2023/12/05 16:03:14;;;;;;;6.53;5.67;;;;;;;;;;5040743;28;20553;-86
2023/12/05 16:05:40;;;;;;;17.77;13.90;;;;;;;;;;5037143;28;20548;-85
2023/12/05 16:08:07;;;;;;;7.57;6.37;;;;;;;;;;5038326;28;20490;-84
2023/12/05 16:10:34;;;;;;;7.20;6.60;;;;;;;;;;5032748;28;20795;-88
2023/12/05 16:13:00;;;;;;;7.13;6.03;;;;;;;;;;5042803;28;20474;-86
2023/12/05 16:15:27;;;;;;;7.80;6.70;;;;;;;;;;5040551;28;20457;-86
2023/12/05 16:17:53;;;;;;;10.00;8.60;;;;;;;;;;5037172;28;20541;-85
2023/12/05 16:20:20;;;;;;;7.70;6.47;;;;;;;;;;5036566;28;20515;-85
2023/12/05 16:22:46;;;;;;;47.97;37.33;;;;;;;;;;5029185;28;20581;-85
2023/12/05 16:25:14;;;;;;;13.77;10.27;;;;;;;;;;5037925;28;20464;-86
2023/12/05 16:27:41;;;;;;;7.20;6.43;;;;;;;;;;5033151;28;20501;-85
2023/12/05 16:30:08;;;;;;;12.03;9.00;;;;;;;;;;5038839;28;21575;-87
2023/12/05 16:32:34;;;;;;;10.50;7.70;;;;;;;;;;5036352;28;20493;-90
2023/12/05 16:35:01;;;;;;;13.93;12.47;;;;;;;;;;5039948;28;20534;-84
2023/12/05 16:37:30;;;;;;;7.90;7.13;;;;;;;;;;5036895;28;20977;-86
2023/12/05 16:39:56;;;;;;;9.67;8.53;;;;;;;;;;5034894;28;20476;-86
2023/12/05 16:42:24;;;;;;;9.60;7.87;;;;;;;;;;5036683;28;20493;-85
2023/12/05 16:44:50;;;;;;;9.53;8.37;;;;;;;;;;5037303;28;20458;-85
2023/12/05 16:47:17;;;;;;;7.53;6.73;;;;;;;;;;5030314;28;20558;-85
2023/12/05 16:49:43;;;;;;;30.17;22.60;;;;;;;;;;5036406;28;20457;-86
2023/12/05 16:52:10;;;;;;;10.60;9.47;;;;;;;;;;5031666;28;20461;-86
2023/12/05 16:54:36;;;;;;;13.77;11.70;;;;;;;;;;5037141;28;20487;-86
2023/12/05 16:57:03;;;;;;;10.87;9.20;;;;;;;;;;5034556;28;21004;-85
2023/12/05 16:59:31;;;;;;;14.83;10.27;;;;;;;;;;5031282;28;20953;-84
2023/12/05 17:01:57;;;;;;;10.20;8.30;;;;;;;;;;5034943;28;20446;-84
2023/12/05 17:04:24;;;;;;;37.70;22.87;;;;;;;;;;5031071;28;20523;-85
2023/12/05 17:06:50;;;;;;;8.70;7.33;;;;;;;;;;5035120;28;20501;-84
2023/12/05 17:09:18;;;;;;;10.83;8.10;;;;;;;;;;5038281;28;20458;-86
2023/12/05 17:11:44;;;;;;;13.57;8.53;;;;;;;;;;5038934;28;20491;-87
2023/12/05 17:14:11;;;;;;;17.53;10.97;;;;;;;;;;5039054;28;20526;-85
2023/12/05 17:16:38;;;;;;;45.20;27.80;;;;;;;;;;5032001;28;20463;-86
2023/12/05 17:19:05;;;;;;;15.67;10.33;;;;;;;;;;5031342;28;20486;-84
2023/12/05 17:21:33;;;;;;;10.13;8.73;;;;;;;;;;5039312;28;20924;-86
2023/12/05 17:24:00;;;;;;;12.10;8.33;;;;;;;;;;5035122;28;20462;-86
2023/12/05 17:26:27;;;;;;;13.13;11.47;;;;;;;;;;5031936;28;20462;-87
2023/12/05 17:28:53;;;;;;;12.60;10.33;;;;;;;;;;5035053;28;20501;-87
2023/12/05 17:31:20;;;;;;;11.17;9.00;;;;;;;;;;5035607;28;20530;-87
2023/12/05 17:33:48;;;;;;;12.00;9.77;;;;;;;;;;5034827;28;20504;-86
2023/12/05 17:36:15;;;;;;;15.80;13.33;;;;;;;;;;5035882;28;20469;-85
2023/12/05 17:38:41;;;;;;;13.23;10.40;;;;;;;;;;5039343;28;20453;-86
2023/12/05 17:41:07;;;;;;;16.63;10.40;;;;;;;;;;5033064;28;20454;-85
2023/12/05 17:43:34;;;;;;;17.17;14.23;;;;;;;;;;5035442;28;20509;-85
2023/12/05 17:46:00;;;;;;;27.93;23.33;;;;;;;;;;5030619;28;20548;-85
2023/12/05 17:48:27;;;;;;;26.97;21.87;;;;;;;;;;5038218;28;20521;-85
2023/12/05 17:50:55;;;;;;;26.63;21.50;;;;;;;;;;5033761;28;20525;-89
2023/12/05 17:53:23;;;;;;;12.37;9.80;;;;;;;;;;5039628;28;20446;-89
2023/12/05 17:55:49;;;;;;;33.27;25.93;;;;;;;;;;5034609;28;20484;-90
2023/12/05 17:58:15;;;;;;;207.13;123.93;;;;;;;;;;5037605;28;20517;-90
2023/12/05 18:00:42;;;;;;;43.27;30.70;;;;;;;;;;5036910;28;20496;-89
2023/12/05 18:03:08;;;;;;;27.70;21.57;;;;;;;;;;5034515;28;20473;-90
2023/12/05 18:05:36;;;;;;;14.30;11.73;;;;;;;;;;5034766;28;20947;-87
2023/12/05 18:08:04;;;;;;;60.40;44.47;;;;;;;;;;5039657;28;20492;-84
2023/12/05 18:10:30;;;;;;;27.20;22.00;;;;;;;;;;5041395;28;20446;-85
2023/12/05 18:12:56;;;;;;;18.93;16.80;;;;;;;;;;5039368;28;20449;-87
2023/12/05 18:15:23;;;;;;;18.20;15.50;;;;;;;;;;5039072;28;20301;-84
2023/12/05 18:17:50;;;;;;;24.83;18.60;;;;;;;;;;5041433;28;20469;-83
2023/12/05 18:20:17;;;;;;;15.60;11.77;;;;;;;;;;5038249;28;20481;-88
2023/12/05 18:22:44;;;;;;;28.20;23.70;;;;;;;;;;5040212;28;20934;-88
2023/12/05 18:25:12;;;;;;;27.30;22.57;;;;;;;;;;5038619;28;20489;-88
2023/12/05 18:27:39;;;;;;;16.97;13.23;;;;;;;;;;5042886;28;20452;-89
2023/12/05 18:30:07;;;;;;;29.10;21.27;;;;;;;;;;5037264;28;20461;-89
2023/12/05 18:32:33;;;;;;;29.53;21.83;;;;;;;;;;5039735;28;20461;-86
2023/12/05 18:35:00;;;;;;;20.93;14.97;;;;;;;;;;5041642;28;21390;-85
2023/12/05 18:37:27;;;;;;;22.53;15.40;;;;;;;;;;5035665;28;20514;-86
2023/12/05 18:39:54;;;;;;;29.07;22.53;;;;;;;;;;5037557;28;20573;-87
2023/12/05 18:42:22;;;;;;;26.57;22.63;;;;;;;;;;5030180;28;20459;-86
2023/12/05 18:44:48;;;;;;;19.70;14.90;;;;;;;;;;5037653;28;20481;-87
2023/12/05 18:47:15;;;;;;;16.33;13.57;;;;;;;;;;5036032;28;20449;-85
2023/12/05 18:49:42;;;;;;;29.17;23.00;;;;;;;;;;5038054;28;20530;-86
2023/12/05 18:52:09;;;;;;;16.60;13.47;;;;;;;;;;5039014;28;20457;-87
2023/12/05 18:54:35;;;;;;;17.73;13.53;;;;;;;;;;5042222;28;20484;-88
2023/12/05 18:57:02;;;;;;;24.67;16.30;;;;;;;;;;5042467;28;20474;-87
2023/12/05 18:59:32;;;;;;;19.37;12.80;;;;;;;;;;5041321;28;20552;-88
2023/12/05 19:01:58;;;;;;;17.07;14.13;;;;;;;;;;5043801;28;20468;-88
2023/12/05 19:04:25;;;;;;;18.20;12.60;;;;;;;;;;5031482;28;20477;-87
2023/12/05 19:06:51;;;;;;;19.23;13.57;;;;;;;;;;5040503;28;20450;-85
2023/12/05 19:09:18;;;;;;;29.73;18.77;;;;;;;;;;5041737;28;20486;-87
2023/12/05 19:11:45;;;;;;;20.97;13.53;;;;;;;;;;5038093;28;20502;-85
2023/12/05 19:14:12;;;;;;;16.80;12.90;;;;;;;;;;5030077;28;20516;-85
2023/12/05 19:16:41;;;;;;;20.00;14.10;;;;;;;;;;5037473;28;20477;-85
2023/12/05 19:19:08;;;;;;;16.67;11.77;;;;;;;;;;5039573;28;20505;-86